Time;durP1;ratioP1;P1;durP2;ratioP2;P2;SDS_P1;SDS_P2;PMS_P1;PMS_P2;Temp;Humidity;BMP_temperature;BMP_pressure;BME280_temperature;BME280_humidity;BME280_pressure;Samples;Min_cycle;Max_cycle;Signal;HPM_P1;HPM_P2
2022/05/23 00:02:06;;;;;;;2.10;1.40;;;15.60;99.90;;;15.43;90.10;96492.22;5006343;28;20051;-39
2022/05/23 00:04:32;;;;;;;1.63;1.40;;;15.60;99.90;;;15.36;90.55;96493.63;5009210;28;20029;-39
2022/05/23 00:06:58;;;;;;;2.50;1.40;;;15.50;99.90;;;15.31;90.77;96493.09;5012143;28;20120;-39
2022/05/23 00:09:25;;;;;;;2.08;1.10;;;15.50;99.90;;;15.24;91.69;96483.88;5009932;28;20409;-39
2022/05/23 00:11:52;;;;;;;2.92;1.58;;;15.40;99.90;;;15.18;92.32;96489.59;5003646;28;21752;-39
2022/05/23 00:14:18;;;;;;;2.67;1.25;;;15.30;99.90;;;15.07;92.42;96479.72;5009613;28;20080;-39
2022/05/23 00:16:48;;;;;;;2.13;1.20;;;15.30;99.90;;;15.06;92.80;96472.72;5011330;28;20038;-39
2022/05/23 00:19:15;;;;;;;1.63;1.20;;;15.30;99.90;;;15.02;92.43;96468.56;5001716;28;20045;-40
2022/05/23 00:21:45;;;;;;;4.00;1.55;;;15.20;99.90;;;15.04;92.39;96464.84;5001286;28;20465;-40
2022/05/23 00:24:13;;;;;;;2.25;1.30;;;15.20;99.90;;;15.06;91.67;96460.28;5008090;28;20029;-40
2022/05/23 00:26:41;;;;;;;4.05;1.50;;;15.20;99.90;;;15.09;91.45;96461.88;5010645;28;20034;-41
2022/05/23 00:29:07;;;;;;;2.33;1.40;;;15.30;99.90;;;15.10;91.08;96460.91;5008492;28;20056;-40
2022/05/23 00:31:33;;;;;;;2.67;1.40;;;15.30;99.90;;;15.12;90.63;96448.38;5009809;28;20473;-40
2022/05/23 00:36:43;;;;;;;2.58;1.45;;;15.30;99.90;;;15.21;88.87;96428.28;5004976;28;20095;-41
2022/05/23 00:39:09;;;;;;;2.80;1.50;;;15.40;99.90;;;15.25;88.26;96425.31;5010076;28;20030;-40
2022/05/23 00:44:30;;;;;;;2.70;1.50;;;15.50;99.90;;;15.32;85.15;96415.09;5002653;28;20225;-40
2022/05/23 00:47:04;;;;;;;3.60;1.25;;;15.60;99.90;;;15.35;85.05;96408.72;5001985;28;20040;-40
2022/05/23 00:49:33;;;;;;;1.42;1.13;;;15.60;99.90;;;15.25;85.57;96393.47;5021943;28;20034;-41
2022/05/23 00:52:05;;;;;;;1.90;1.25;;;15.50;99.90;;;15.25;86.87;96417.34;5011806;28;20034;-40
2022/05/23 00:54:38;;;;;;;1.85;1.25;;;15.50;99.90;;;15.19;89.00;96411.63;5009135;28;20030;-41
2022/05/23 00:57:05;;;;;;;1.83;1.20;;;15.40;99.90;;;15.04;90.68;96406.44;5005876;28;20129;-40
2022/05/23 00:59:32;;;;;;;2.45;1.65;;;15.30;99.90;;;14.98;91.33;96412.16;5012781;28;20028;-40
2022/05/23 01:02:01;;;;;;;2.67;1.33;;;15.20;99.90;;;14.87;90.90;96401.47;5011003;28;20052;-40
2022/05/23 01:04:30;;;;;;;3.95;1.30;;;15.10;99.90;;;14.84;91.37;96404.31;5009092;28;20061;-40
2022/05/23 01:06:57;;;;;;;1.63;1.10;;;15.00;99.90;;;14.76;91.81;96396.91;5010050;28;20120;-40
2022/05/23 01:09:25;;;;;;;1.67;1.20;;;15.00;99.90;;;14.70;91.80;96392.88;5015997;28;20101;-40
2022/05/23 01:11:53;;;;;;;1.65;1.40;;;14.90;99.90;;;14.66;92.08;96388.75;5013725;28;20048;-40
2022/05/23 01:14:20;;;;;;;3.03;1.40;;;14.80;99.90;;;14.55;92.84;96379.78;5024655;28;20034;-40
2022/05/23 01:16:46;;;;;;;1.60;1.35;;;14.80;99.90;;;14.56;93.35;96378.84;5009266;28;20125;-40
2022/05/23 01:19:12;;;;;;;2.00;1.30;;;14.70;99.90;;;14.49;93.39;96373.13;5011868;28;20036;-40
2022/05/23 01:21:49;;;;;;;2.28;1.38;;;14.70;99.90;;;14.44;93.61;96359.31;5008490;28;20347;-41
2022/05/23 01:24:37;;;;;;;3.85;1.70;;;14.70;99.90;;;14.45;93.57;96364.53;5008927;28;20059;-41
2022/05/23 01:27:06;;;;;;;3.38;1.83;;;14.60;99.90;;;14.40;93.63;96356.03;5007790;28;20572;-41
2022/05/23 01:29:32;;;;;;;2.80;1.20;;;14.60;99.90;;;14.42;93.78;96362.06;5009879;28;20136;-40
2022/05/23 01:31:59;;;;;;;1.50;1.40;;;14.60;99.90;;;14.38;93.99;96360.59;5008603;28;20033;-41
2022/05/23 01:34:26;;;;;;;3.90;1.50;;;14.60;99.90;;;14.36;93.96;96351.91;5012996;28;20145;-41
2022/05/23 01:36:53;;;;;;;2.28;1.52;;;14.60;99.90;;;14.37;93.51;96358.03;5011744;28;20029;-41
2022/05/23 01:39:19;;;;;;;1.75;1.20;;;14.60;99.90;;;14.33;93.67;96344.97;5013499;28;20025;-41
2022/05/23 01:41:45;;;;;;;2.47;1.45;;;14.50;99.90;;;14.33;93.73;96347.63;5013616;28;20036;-41
2022/05/23 01:44:11;;;;;;;1.40;1.15;;;14.50;99.90;;;14.37;93.61;96358.03;5010837;28;20030;-41
2022/05/23 01:46:37;;;;;;;3.20;1.50;;;14.50;99.90;;;14.36;93.80;96348.41;5002705;28;20025;-40
2022/05/23 01:49:03;;;;;;;5.53;1.30;;;14.50;99.90;;;14.34;94.42;96353.81;5008345;28;20091;-41
2022/05/23 01:51:29;;;;;;;2.65;1.23;;;14.50;99.90;;;14.30;95.26;96353.16;5010325;28;20029;-41
2022/05/23 01:53:54;;;;;;;2.55;1.60;;;14.50;99.90;;;14.27;96.70;96369.28;5007842;28;20117;-42
2022/05/23 01:56:20;;;;;;;3.20;1.50;;;14.50;99.90;;;14.19;97.41;96355.69;5005478;28;20102;-41
2022/05/23 02:01:30;;;;;;;1.95;1.35;;;14.40;99.90;;;14.19;97.02;96355.69;5011033;28;20032;-40
2022/05/23 02:03:55;;;;;;;2.03;1.50;;;14.40;99.90;;;14.12;97.05;96342.03;5007539;28;20030;-41
2022/05/23 02:06:21;;;;;;;3.13;1.58;;;14.40;99.90;;;14.19;97.05;96353.03;5004396;28;21229;-42
2022/05/23 02:08:47;;;;;;;2.75;1.60;;;14.40;99.90;;;14.21;96.74;96335.25;5007210;28;20052;-40
2022/05/23 02:11:14;;;;;;;3.15;1.67;;;14.40;99.90;;;14.20;96.74;96336.19;5010396;28;20484;-41
2022/05/23 02:13:43;;;;;;;1.75;1.30;;;14.40;99.90;;;14.18;97.26;96332.78;5011040;28;20037;-41
2022/05/23 02:16:09;;;;;;;2.28;1.58;;;14.40;99.90;;;14.13;98.15;96335.75;5004097;28;20061;-41
2022/05/23 02:18:36;;;;;;;1.83;1.40;;;14.40;99.90;;;14.09;98.10;96325.47;5002923;28;21140;-42
2022/05/23 02:21:01;;;;;;;1.80;1.40;;;14.30;99.90;;;14.08;97.63;96318.47;5010074;28;20034;-48
2022/05/23 02:23:27;;;;;;;2.35;1.40;;;14.30;99.90;;;14.09;97.86;96314.88;5009046;28;20468;-42
2022/05/23 02:25:53;;;;;;;2.53;1.50;;;14.30;99.90;;;14.05;98.11;96311.56;5008307;28;20042;-40
2022/05/23 02:28:20;;;;;;;2.65;1.33;;;14.30;99.90;;;14.04;98.29;96316.97;5008289;28;20560;-41
2022/05/23 02:30:47;;;;;;;2.95;1.40;;;14.30;99.90;;;14.04;98.50;96311.69;5004002;28;20335;-41
2022/05/23 02:33:14;;;;;;;2.45;1.60;;;14.20;99.90;;;14.04;98.36;96312.53;5005099;28;20135;-41
2022/05/23 02:35:40;;;;;;;2.40;1.38;;;14.20;99.90;;;14.06;98.13;96304.47;5002597;28;20040;-40
2022/05/23 02:38:06;;;;;;;2.78;1.60;;;14.30;99.90;;;14.06;98.61;96293.88;5005841;28;21157;-40
2022/05/23 02:40:32;;;;;;;2.55;1.40;;;14.20;99.90;;;14.06;98.88;96299.16;5006947;23;20066;-43
2022/05/23 02:42:57;;;;;;;2.90;1.52;;;14.20;99.90;;;14.02;99.81;96295.88;4990271;28;20545;-43
2022/05/23 02:45:23;;;;;;;2.78;1.55;;;14.20;99.90;;;13.99;100.00;96281.97;4987216;28;20037;-43
2022/05/23 02:47:49;;;;;;;2.88;1.33;;;14.20;99.90;;;13.96;100.00;96282.19;4984762;28;20037;-43
2022/05/23 02:50:15;;;;;;;2.10;1.30;;;14.20;99.90;;;13.93;100.00;96270.84;4975730;28;20121;-42
2022/05/23 02:52:43;;;;;;;3.13;1.67;;;14.20;99.90;;;13.93;100.00;96273.50;4974257;28;20052;-43
2022/05/23 02:55:10;;;;;;;3.05;1.58;;;14.20;99.90;;;13.96;100.00;96269.78;4976394;28;20070;-43
2022/05/23 02:57:35;;;;;;;2.78;1.80;;;14.20;99.90;;;13.92;100.00;96261.19;4966213;28;20064;-43
2022/05/23 03:00:03;;;;;;;2.47;1.77;;;14.20;99.90;;;14.03;100.00;96262.25;4974355;28;20117;-43
2022/05/23 03:05:13;;;;;;;2.47;1.50;;;14.30;99.90;;;14.08;99.95;96244.22;4972996;28;20054;-43
2022/05/23 03:07:39;;;;;;;2.90;1.50;;;14.30;99.90;;;14.11;100.00;96247.53;4975019;28;20030;-43
2022/05/23 03:10:06;;;;;;;1.55;1.42;;;14.40;99.90;;;14.12;99.97;96232.44;4978732;28;20065;-44
2022/05/23 03:12:34;;;;;;;2.80;1.73;;;14.40;99.90;;;14.22;99.96;96248.59;4977408;28;20022;-43
2022/05/23 03:15:01;;;;;;;3.38;1.70;;;14.40;99.90;;;14.23;100.00;96242.31;4974413;28;20704;-44
2022/05/23 03:17:26;;;;;;;1.65;1.50;;;14.50;99.90;;;14.28;100.00;96249.00;4971424;28;20129;-43
2022/05/23 03:19:52;;;;;;;2.55;1.60;;;14.50;99.90;;;14.30;100.00;96252.41;4974598;28;20034;-43
2022/05/23 03:27:47;;;;;;;2.85;1.83;;;14.60;99.90;;;14.39;98.55;96248.25;4977602;28;20049;-43
2022/05/23 03:30:13;;;;;;;3.55;1.63;;;14.60;99.90;;;14.44;98.75;96247.91;4976058;28;20034;-43
2022/05/23 03:32:39;;;;;;;2.83;1.77;;;14.60;99.90;;;14.46;98.56;96251.31;4976908;28;20103;-44
2022/05/23 03:35:07;;;;;;;3.08;2.00;;;14.70;99.90;;;14.46;99.07;96243.34;4974784;28;20141;-44
2022/05/23 03:37:33;;;;;;;3.13;1.60;;;14.70;99.90;;;14.36;99.21;96227.25;4974729;28;20938;-43
2022/05/23 03:40:03;;;;;;;2.97;1.80;;;14.70;99.90;;;14.47;99.29;96248.53;4976913;28;20447;-43
2022/05/23 03:42:29;;;;;;;2.78;1.80;;;14.70;99.90;;;14.46;99.47;96232.72;4976970;28;20154;-43
2022/05/23 03:44:55;;;;;;;2.13;1.50;;;14.70;99.90;;;14.46;99.51;96233.59;4974888;28;20030;-43
2022/05/23 03:47:20;;;;;;;4.10;1.70;;;14.70;99.90;;;14.51;99.68;96230.59;4979349;28;20441;-45
2022/05/23 03:49:46;;;;;;;2.90;1.85;;;14.70;99.90;;;14.58;99.30;96233.72;4973430;28;20541;-45
2022/05/23 03:52:12;;;;;;;2.55;1.70;;;14.80;99.90;;;14.63;99.11;96248.34;4975865;28;20105;-43
2022/05/23 03:54:37;;;;;;;3.92;1.67;;;14.90;99.90;;;14.59;97.92;96238.91;4974343;28;20392;-44
2022/05/23 03:57:04;;;;;;;2.15;1.35;;;14.90;99.90;;;14.81;96.58;96271.88;4975904;28;20803;-43
2022/05/23 03:59:31;;;;;;;1.33;1.20;;;15.00;99.90;;;14.92;95.39;96279.88;4976480;28;20023;-43
2022/05/23 04:01:57;;;;;;;1.85;1.30;;;15.10;99.90;;;15.01;94.98;96278.38;4978040;28;20153;-43
2022/05/23 04:04:29;;;;;;;1.65;1.15;;;15.20;99.90;;;15.07;94.62;96284.09;4978734;28;20030;-44
2022/05/23 04:07:04;;;;;;;2.85;1.33;;;15.30;99.90;;;15.15;93.94;96288.00;4975599;28;20529;-44
2022/05/23 04:09:31;;;;;;;1.58;1.42;;;15.40;99.90;;;15.20;93.09;96326.53;4967915;28;20430;-43
2022/05/23 04:11:58;;;;;;;3.85;1.80;;;15.40;99.90;;;15.29;95.73;96410.03;4974505;28;20117;-43
2022/05/23 04:14:25;;;;;;;3.53;1.70;;;15.50;99.90;;;15.29;98.68;96447.22;4974523;28;20041;-43
2022/05/23 04:16:52;;;;;;;4.07;1.75;;;15.50;99.90;;;15.11;94.91;96470.59;4976686;28;20042;-42
2022/05/23 04:19:19;;;;;;;3.03;2.00;;;15.50;99.90;;;14.95;91.75;96454.00;4975753;28;20121;-43
2022/05/23 04:21:46;;;;;;;4.47;1.70;;;15.30;99.90;;;14.85;94.76;96454.66;4972002;28;20088;-44
2022/05/23 04:24:15;;;;;;;3.00;2.25;;;15.20;99.90;;;14.69;96.90;96477.91;4973268;28;20518;-43
2022/05/23 04:26:42;;;;;;;4.80;2.10;;;15.00;99.90;;;14.58;97.33;96467.19;4974920;28;20030;-43
2022/05/23 04:29:08;;;;;;;5.47;2.20;;;15.00;99.90;;;14.52;97.11;96476.38;4979597;28;20042;-44
2022/05/23 04:31:35;;;;;;;3.90;1.80;;;14.80;99.90;;;14.53;99.76;96496.63;4977936;28;20532;-43
2022/05/23 04:36:48;;;;;;;2.63;1.70;;;14.80;99.90;;;14.49;100.00;96497.78;4975404;28;20069;-43
2022/05/23 04:39:14;;;;;;;5.85;2.00;;;14.80;99.90;;;14.46;100.00;96498.00;4973110;28;20154;-44
2022/05/23 04:41:40;;;;;;;5.25;2.00;;;14.70;99.90;;;14.41;100.00;96495.66;4975538;28;20038;-44
2022/05/23 04:44:07;;;;;;;4.55;1.90;;;14.70;99.90;;;14.36;100.00;96481.00;4973098;28;20034;-43
2022/05/23 04:46:33;;;;;;;3.20;1.75;;;14.70;99.90;;;14.30;100.00;96476.94;4976594;28;20034;-45
2022/05/23 04:51:43;;;;;;;3.47;1.95;;;14.60;99.90;;;14.22;100.00;96468.66;4976846;28;20091;-43
2022/05/23 04:54:09;;;;;;;4.68;2.00;;;14.50;99.90;;;14.18;100.00;96477.78;4981128;28;20031;-43
2022/05/23 04:56:37;;;;;;;4.53;2.50;;;14.50;99.90;;;14.09;100.00;96480.06;4977943;28;20038;-44
2022/05/23 04:59:04;;;;;;;4.32;2.13;;;14.40;99.90;;;14.02;100.00;96448.78;4978682;28;20026;-45
2022/05/23 05:01:30;;;;;;;3.17;1.67;;;14.30;99.90;;;13.99;100.00;96418.00;4976697;28;20498;-46
2022/05/23 05:03:57;;;;;;;3.90;2.17;;;14.30;99.90;;;13.96;100.00;96396.16;4972779;28;20738;-45
2022/05/23 05:06:26;;;;;;;2.20;1.65;;;14.20;99.90;;;13.96;100.00;96390.84;4978784;28;20113;-46
2022/05/23 05:08:52;;;;;;;6.90;2.20;;;14.20;99.90;;;13.91;100.00;96409.72;4975539;28;20337;-44
2022/05/23 05:11:18;;;;;;;5.65;2.28;;;14.20;99.90;;;13.93;100.00;96421.91;4972351;28;20397;-44
2022/05/23 05:13:44;;;;;;;3.50;1.92;;;14.20;99.90;;;13.97;100.00;96414.59;4974565;28;20137;-47
2022/05/23 05:16:12;;;;;;;5.35;2.38;;;14.20;99.90;;;14.03;100.00;96419.53;4974333;28;20383;-47
2022/05/23 05:18:38;;;;;;;9.70;2.80;;;14.30;99.90;;;14.10;100.00;96441.16;4971940;28;20038;-44
2022/05/23 05:21:09;;;;;;;3.45;2.13;;;14.30;99.90;;;14.14;100.00;96440.03;4977886;28;20034;-43
2022/05/23 05:23:36;;;;;;;4.97;2.22;;;14.40;99.90;;;14.20;100.00;96436.94;4975913;28;20026;-45
2022/05/23 05:26:02;;;;;;;3.63;2.00;;;14.50;99.90;;;14.27;100.00;96424.13;4975781;28;20486;-44
2022/05/23 05:28:29;;;;;;;3.35;2.08;;;14.50;99.90;;;14.34;100.00;96401.53;4976632;28;20558;-44
2022/05/23 05:31:12;;;;;;;5.22;2.50;;;14.60;99.90;;;14.40;100.00;96374.59;4975953;28;20112;-43
2022/05/23 05:33:44;;;;;;;3.90;2.05;;;14.70;99.90;;;14.47;100.00;96353.81;4972893;28;20944;-44
2022/05/23 05:36:16;;;;;;;2.25;1.60;;;14.70;99.90;;;14.53;100.00;96340.09;4977100;28;20030;-45
2022/05/23 05:38:55;;;;;;;;;;;14.80;99.90;;;14.60;100.00;96330.78;4977873;28;20105;-44
2022/05/23 05:41:28;;;;;;;4.95;2.50;;;14.90;99.90;;;14.64;100.00;96334.94;4968260;28;19920;-44
2022/05/23 05:44:08;;;;;;;3.97;2.50;;;14.90;99.90;;;14.70;100.00;96331.84;4993777;28;20038;-47
2022/05/23 05:46:44;;;;;;;6.38;2.60;;;15.00;99.90;;;14.73;100.00;96335.25;4976346;28;20037;-45
2022/05/23 05:49:16;;;;;;;5.10;2.65;;;15.00;99.90;;;14.83;100.00;96344.25;4977661;28;20069;-45
2022/05/23 05:51:43;;;;;;;7.22;2.88;;;15.10;99.90;;;14.91;100.00;96336.56;4978156;28;20586;-48
2022/05/23 05:54:13;;;;;;;4.82;2.10;;;15.20;99.90;;;14.97;100.00;96308.78;4980827;28;20686;-44
2022/05/23 05:56:39;;;;;;;2.83;2.10;;;15.20;99.90;;;15.08;100.00;96291.09;4980197;28;20041;-45
2022/05/23 05:59:06;;;;;;;4.75;3.00;;;15.40;99.90;;;15.21;100.00;96285.72;4981287;28;20050;-45
2022/05/23 06:01:32;;;;;;;6.45;2.85;;;15.50;99.90;;;15.41;100.00;96273.63;5000541;28;20076;-45
2022/05/23 06:03:57;;;;;;;6.57;2.65;;;15.70;99.90;;;15.63;100.00;96272.00;4980067;28;20034;-44
2022/05/23 06:11:52;;;;;;;3.55;2.60;;;16.40;99.90;;;16.31;100.00;96258.91;4978713;28;20053;-47
2022/05/23 06:14:17;;;;;;;4.97;2.40;;;16.60;99.90;;;16.52;100.00;96249.22;4981513;28;20038;-48
2022/05/23 06:16:43;;;;;;;5.00;2.30;;;16.70;99.90;;;16.66;100.00;96242.81;4995219;28;20081;-48
2022/05/23 06:19:09;;;;;;;4.10;2.60;;;17.00;99.90;;;16.86;100.00;96243.06;4980005;28;20084;-47
2022/05/23 06:21:35;;;;;;;4.57;2.70;;;17.10;99.90;;;17.00;100.00;96240.13;4979732;28;20034;-48
2022/05/23 06:24:00;;;;;;;5.38;2.42;;;17.30;99.90;;;17.17;100.00;96246.75;4975552;28;20536;-48
2022/05/23 06:26:27;;;;;;;3.33;2.42;;;17.50;99.90;;;17.24;100.00;96247.09;4977790;28;20726;-47
2022/05/23 06:28:54;;;;;;;6.40;3.00;;;17.50;99.90;;;17.38;100.00;96245.97;4979459;28;20282;-47
2022/05/23 06:31:20;;;;;;;4.00;2.38;;;17.60;99.90;;;17.50;100.00;96236.94;4978144;28;20053;-48
2022/05/23 06:33:46;;;;;;;5.82;2.40;;;17.80;99.90;;;17.60;100.00;96227.19;4993485;28;20156;-48
2022/05/23 06:36:13;;;;;;;4.72;2.38;;;17.80;99.90;;;17.74;100.00;96218.88;4977527;28;20034;-47
2022/05/23 06:38:41;;;;;;;6.97;2.58;;;18.00;99.90;;;17.98;100.00;96212.47;4977954;28;20026;-46
2022/05/23 06:41:09;;;;;;;3.22;2.15;;;18.10;99.90;;;18.18;98.61;96199.22;4979507;28;20028;-48
2022/05/23 06:43:37;;;;;;;4.38;2.33;;;18.30;99.90;;;18.27;98.87;96164.59;4978957;28;20034;-46
2022/05/23 06:46:03;;;;;;;4.32;2.47;;;18.50;99.90;;;18.16;95.68;96153.16;4979381;28;20041;-48
2022/05/23 06:48:30;;;;;;;3.50;2.80;;;18.50;99.90;;;18.15;94.27;96156.81;4979568;28;20030;-47
2022/05/23 06:50:56;;;;;;;4.90;2.30;;;18.50;99.90;;;18.04;95.22;96153.25;4978484;28;20359;-44
2022/05/23 06:53:24;;;;;;;4.00;2.63;;;18.40;99.90;;;18.01;94.45;96142.84;4980660;28;20064;-45
2022/05/23 06:55:51;;;;;;;5.75;2.25;;;18.40;99.90;;;18.06;94.71;96148.63;4975214;28;20038;-45
2022/05/23 06:58:19;;;;;;;4.43;2.40;;;18.40;99.90;;;18.10;93.41;96154.53;4978943;28;20100;-45
2022/05/23 07:00:45;;;;;;;5.32;2.45;;;18.30;99.90;;;18.19;95.06;96160.91;4975852;28;20041;-44
2022/05/23 07:03:11;;;;;;;4.03;2.15;;;18.40;99.90;;;18.24;92.72;96166.69;4979207;28;20030;-42
2022/05/23 07:13:56;;;;;;;3.90;2.03;;;18.60;99.90;;;18.55;87.65;96178.16;4977529;28;20085;-46
2022/05/23 07:16:23;;;;;;;4.32;2.20;;;18.90;99.90;;;18.67;84.71;96189.59;4977702;28;20041;-47
2022/05/23 07:18:49;;;;;;;4.82;2.05;;;18.90;99.90;;;18.82;83.79;96187.41;4979607;28;20100;-45
2022/05/23 07:21:15;;;;;;;4.40;2.20;;;19.00;99.90;;;18.92;82.96;96177.59;4979495;28;20054;-50
2022/05/23 07:23:41;;;;;;;2.15;1.48;;;19.20;99.90;;;19.02;83.82;96185.59;4977427;28;20110;-46
2022/05/23 07:26:16;;;;;;;2.20;1.75;;;19.20;99.90;;;19.01;80.85;96198.13;4975448;28;20065;-49
2022/05/23 07:28:43;;;;;;;5.75;1.95;;;19.20;99.90;;;19.05;82.24;96198.69;4973938;28;20026;-47
2022/05/23 07:31:11;;;;;;;3.28;1.88;;;19.30;99.90;;;19.14;81.77;96195.19;4974716;28;20541;-49
2022/05/23 07:33:39;;;;;;;4.55;1.92;;;19.30;99.90;;;19.20;80.48;96186.63;4976640;28;20037;-49
2022/05/23 07:36:06;;;;;;;3.70;2.10;;;19.40;99.90;;;19.34;81.97;96181.84;4976857;28;20695;-48
2022/05/23 07:38:32;;;;;;;3.17;1.83;;;19.60;99.90;;;19.39;79.11;96190.28;4981874;28;20056;-46
2022/05/23 07:40:59;;;;;;;4.53;2.20;;;19.70;99.90;;;19.51;79.72;96199.84;4978509;28;20033;-48
2022/05/23 07:43:25;;;;;;;4.10;2.33;;;19.70;99.90;;;19.57;79.47;96201.09;4979707;28;20033;-50
2022/05/23 07:45:52;;;;;;;5.68;2.00;;;19.80;99.90;;;19.64;79.00;96191.53;4977627;28;20030;-49
2022/05/23 07:48:19;;;;;;;4.68;2.30;;;19.80;99.90;;;19.68;77.64;96192.94;4978157;28;20042;-49
2022/05/23 07:50:46;;;;;;;4.78;1.80;;;20.00;99.90;;;19.97;77.88;96192.06;4979065;28;20129;-47
2022/05/23 08:01:28;;;;;;;5.55;2.00;;;20.50;99.90;;;20.29;71.55;96189.00;4979202;28;20446;-46
2022/05/23 08:03:55;;;;;;;6.70;2.10;;;20.50;99.90;;;20.35;73.72;96188.44;4979814;28;20053;-48
2022/05/23 08:06:21;;;;;;;3.50;2.17;;;20.60;99.90;;;20.56;74.22;96176.63;4978562;28;20072;-47
2022/05/23 08:08:48;;;;;;;5.00;1.90;;;20.70;99.90;;;20.89;73.58;96171.69;4979238;28;20429;-50
2022/05/23 08:11:14;;;;;;;3.42;2.22;;;21.00;99.90;;;21.12;69.90;96183.69;4979497;28;20687;-50
2022/05/23 08:13:45;;;;;;;6.50;1.92;;;21.30;99.90;;;21.13;70.70;96181.84;4975608;28;20368;-49
2022/05/23 08:16:11;;;;;;;3.15;1.90;;;21.30;99.90;;;21.23;71.55;96160.28;4974820;28;20113;-45
2022/05/23 08:18:36;;;;;;;2.10;1.70;;;21.40;99.90;;;21.14;69.22;96157.56;4978587;28;20125;-45
2022/05/23 08:21:02;;;;;;;4.70;1.70;;;21.40;99.90;;;21.07;71.35;96174.41;4977207;28;20116;-46
2022/05/23 08:23:29;;;;;;;2.58;1.75;;;21.30;99.90;;;20.91;70.32;96162.50;4980701;28;20034;-50
2022/05/23 08:25:56;;;;;;;1.65;1.48;;;21.10;99.90;;;20.92;73.68;96158.81;4977859;28;20121;-49
2022/05/23 08:28:21;;;;;;;1.90;1.50;;;21.10;99.90;;;20.93;71.20;96154.31;4979249;28;20087;-49
2022/05/23 08:30:47;;;;;;;3.67;1.95;;;21.20;99.90;;;20.89;70.24;96164.50;4978201;28;20038;-48
2022/05/23 08:33:13;;;;;;;3.75;1.90;;;21.20;99.90;;;20.90;71.12;96165.34;4973968;28;20050;-51
2022/05/23 08:35:39;;;;;;;3.80;1.60;;;21.10;99.90;;;20.92;70.54;96150.78;4979118;28;20018;-50
2022/05/23 08:38:05;;;;;;;3.33;1.73;;;21.10;99.90;;;20.90;71.54;96150.09;4977800;28;20030;-49
2022/05/23 08:41:16;;;;;;;2.75;1.85;;;21.10;99.90;;;20.93;70.48;96139.09;4979562;28;20033;-50
2022/05/23 08:44:24;;;;;;;4.82;2.08;;;21.10;99.90;;;20.80;72.14;96146.66;4977258;28;20042;-47
2022/05/23 08:47:08;;;;;;;3.60;1.75;;;21.10;99.90;;;20.75;72.63;96131.03;4999129;23;20080;-44
2022/05/23 08:49:44;;;;;;;2.63;1.70;;;20.90;99.90;;;20.74;73.28;96131.16;5006188;28;20159;-46
2022/05/23 08:52:41;;;;;;;3.60;1.77;;;20.90;99.90;;;20.83;74.79;96132.09;5005803;28;20026;-48
2022/05/23 08:55:33;;;;;;;4.43;2.40;;;21.00;99.90;;;20.90;74.15;96123.31;5019430;28;20056;-45
2022/05/23 08:58:10;;;;;;;2.95;1.80;;;21.10;99.90;;;20.96;73.46;96113.81;4996035;28;20053;-44
2022/05/23 09:00:48;;;;;;;5.53;2.22;;;21.10;99.90;;;20.88;73.73;96109.22;5001770;28;20026;-44
2022/05/23 09:03:34;;;;;;;3.08;1.95;;;21.10;99.90;;;20.92;72.57;96107.06;5002539;28;21321;-45
2022/05/23 09:06:34;;;;;;;5.85;2.33;;;21.10;99.90;;;20.77;73.37;96072.78;5005304;28;20107;-44
2022/05/23 09:09:08;;;;;;;5.03;2.33;;;21.10;99.90;;;21.03;73.70;96106.00;5003952;28;20048;-45
2022/05/23 09:11:39;;;;;;;4.70;2.20;;;21.20;99.90;;;21.32;72.70;96114.66;5019662;28;20393;-45
2022/05/23 09:14:08;;;;;;;8.50;2.45;;;21.40;99.90;;;21.64;71.90;96104.34;5009678;28;20025;-48
2022/05/23 09:16:42;;;;;;;2.67;1.80;;;21.70;99.90;;;21.91;70.17;96108.72;5011158;28;20147;-45
2022/05/23 09:19:21;;;;;;;5.05;1.83;;;21.90;99.90;;;21.91;69.81;96127.50;5005236;28;20033;-46
2022/05/23 09:24:47;;;;;;;2.65;2.20;;;22.10;99.90;;;21.87;71.46;96126.13;5007020;28;20111;-49
2022/05/23 09:27:31;;;;;;;3.72;2.20;;;22.10;99.90;;;21.96;70.82;96127.03;5021607;28;20056;-47
2022/05/23 09:29:58;;;;;;;2.85;2.00;;;22.10;99.90;;;21.96;70.31;96127.03;5012194;28;20018;-48
2022/05/23 09:32:53;;;;;;;4.55;1.98;;;22.10;99.90;;;21.90;72.42;96107.88;5011650;28;20029;-46
2022/05/23 09:35:23;;;;;;;5.63;2.30;;;22.10;99.90;;;21.89;72.44;96111.59;5011806;28;20053;-50
2022/05/23 09:38:22;;;;;;;4.85;2.83;;;22.10;99.90;;;21.90;71.56;96123.16;5012027;28;20132;-45
2022/05/23 09:40:49;;;;;;;5.15;2.30;;;22.10;99.90;;;22.03;70.79;96115.50;5007665;28;20052;-48
2022/05/23 09:49:26;;;;;;;3.70;2.00;;;22.70;99.90;;;22.76;69.58;96127.59;5008529;28;20087;-46
2022/05/23 09:51:57;;;;;;;2.30;2.10;;;22.90;99.90;;;22.76;68.07;96118.69;5011278;28;20028;-48
2022/05/23 09:54:32;;;;;;;4.68;2.53;;;23.00;99.90;;;22.98;67.05;96120.75;5008294;28;20128;-48
2022/05/23 09:57:02;;;;;;;6.32;2.97;;;23.20;99.90;;;23.15;65.92;96131.56;5008986;28;20283;-47
2022/05/23 09:59:35;;;;;;;4.38;2.00;;;23.40;99.90;;;23.21;65.06;96126.34;5008683;28;20501;-48
2022/05/23 10:02:15;;;;;;;2.58;1.95;;;23.40;99.90;;;23.31;67.08;96134.28;5011087;28;20112;-46
2022/05/23 10:04:45;;;;;;;5.03;2.40;;;23.40;99.90;;;23.36;66.03;96142.66;5010483;28;20535;-46
2022/05/23 10:07:35;;;;;;;3.97;2.25;;;23.50;99.90;;;23.46;65.52;96144.38;5006698;28;20037;-46
2022/05/23 10:10:07;;;;;;;4.22;2.35;;;23.50;99.90;;;23.56;65.83;96143.19;5007005;28;20042;-45
2022/05/23 10:12:35;;;;;;;3.50;2.30;;;23.60;99.90;;;23.73;65.15;96145.88;5007713;28;20797;-46
2022/05/23 10:15:25;;;;;;;4.03;2.78;;;23.80;99.90;;;23.72;64.71;96153.09;5007951;28;20038;-48
2022/05/23 10:18:08;;;;;;;2.08;1.83;;;23.80;99.90;;;23.69;65.39;96160.66;5008700;28;20029;-46
2022/05/23 10:20:40;;;;;;;3.70;2.40;;;23.80;99.90;;;23.20;65.99;96167.72;5007304;28;20071;-50
2022/05/23 10:23:28;;;;;;;3.78;2.00;;;23.50;99.90;;;23.22;68.19;96157.63;5009900;28;20099;-49
2022/05/23 10:26:06;;;;;;;3.22;2.03;;;23.30;99.90;;;23.30;69.51;96159.50;5008536;28;20048;-47
2022/05/23 10:28:52;;;;;;;4.97;2.85;;;23.50;99.90;;;23.17;66.86;96167.22;5025440;28;20630;-49
2022/05/23 10:31:26;;;;;;;4.43;3.20;;;23.50;99.90;;;23.29;67.70;96170.41;5009153;28;20048;-49
2022/05/23 10:34:03;;;;;;;6.32;2.95;;;23.40;99.90;;;23.30;66.90;96172.94;5009432;28;20037;-48
2022/05/23 10:36:30;;;;;;;3.60;2.80;;;23.50;99.90;;;23.32;66.77;96178.16;5007412;28;20040;-48
2022/05/23 10:42:55;;;;;;;4.50;3.03;;;23.50;99.90;;;23.13;69.41;96198.09;5008425;28;20036;-47
2022/05/23 10:45:54;;;;;;;4.03;2.65;;;23.30;99.90;;;23.09;69.92;96192.22;4977017;28;20339;-49
2022/05/23 10:48:46;;;;;;;6.82;2.80;;;23.20;99.90;;;23.13;69.93;96207.03;5008990;28;20025;-47
2022/05/23 10:51:36;;;;;;;2.45;2.25;;;23.20;99.90;;;23.15;70.25;96204.16;5008112;28;20041;-48
2022/05/23 10:54:16;;;;;;;4.32;2.30;;;23.20;99.90;;;23.20;71.63;96196.44;5011323;28;20037;-45
2022/05/23 10:57:09;;;;;;;3.67;2.10;;;23.30;99.90;;;23.14;69.55;96207.88;5023625;28;20030;-46
2022/05/23 11:00:06;;;;;;;3.90;2.60;;;23.20;99.90;;;23.01;71.84;96200.25;5007544;28;20033;-48
2022/05/23 11:03:18;;;;;;;2.53;2.10;;;23.10;99.90;;;22.78;73.50;96208.06;5011412;28;20037;-49
2022/05/23 11:05:50;;;;;;;2.65;1.90;;;22.90;99.90;;;22.52;74.74;96208.91;4999293;28;20510;-49
2022/05/23 11:08:32;;;;;;;4.28;2.30;;;22.60;99.90;;;22.23;77.60;96223.50;5008381;28;20068;-49
2022/05/23 11:11:00;;;;;;;2.72;2.10;;;22.40;99.90;;;21.96;80.97;96224.50;5008569;28;20030;-46
2022/05/23 11:13:58;;;;;;;4.13;2.33;;;22.10;99.90;;;21.65;86.25;96234.81;5021549;28;20490;-50
2022/05/23 11:17:03;;;;;;;5.38;2.83;;;21.80;99.90;;;21.34;88.26;96254.78;5006809;28;20042;-49
2022/05/23 11:20:08;;;;;;;5.20;2.65;;;21.50;99.90;;;21.08;92.19;96265.34;5005666;28;20041;-46
2022/05/23 11:22:56;;;;;;;7.65;2.78;;;21.30;99.90;;;20.82;95.72;96267.03;5010081;28;20136;-48
2022/05/23 11:25:32;;;;;;;7.28;3.22;;;21.00;99.90;;;20.61;100.00;96270.81;5007363;28;20034;-45
2022/05/23 11:34:26;;;;;;;12.23;3.78;;;20.30;99.90;;;19.68;100.00;96278.50;5004472;28;20129;-46
2022/05/23 11:39:51;;;;;;;7.30;3.30;;;19.60;99.90;;;18.99;100.00;96274.91;5011647;28;20037;-47